메인 페이지
METAR-TAF:

METAR-TAF

공항 :

밴쿠버 국제공항

밴쿠버, 브리티시컬럼비아, 캐나다

위도: 49-11N, 경도: 123-10W, 고도: 3m

현재 날씨관측

예보는 47분 전, 09:00시(UTC)에 발표되었습니다.
북동2kt
온도 6°C
습도 81%
기압 1029 hPa
시정: 32.2km
맑음

METAR: CYVR 150900Z 05002KT 20SM SKC 06/03 A3039 RMK SLP292

시각: 02:47 (09:47 UTC)

예보

예보는 1 시간 9분 전, 08:38시(UTC)에 발표되었습니다.
예보 대상 시간: 15일 09시부터 16일 12시까지 (UTC)
여러 방향의 바람 3kt
시정: 10km
맑음
전환 중
15일 18시부터 15일 20시까지 (UTC)
8kt
전환 중
16일 09시부터 16일 11시까지 (UTC)
여러 방향의 바람 3kt

TAF: CYVR 150838Z 1509/1612 VRB03KT P6SM SKC BECMG 1518/1520 28008KT BECMG 1609/1611 VRB03KT RMK NXT FCST BY 151200Z

4,000개 이상의 공항 관측 자료 및 예보 (METAR 및 TAF 보고).

지도상에서 검색 가능한 기상관측소가 노란 점과 빨간 점으로 표시되어 있습니다.

기상관측소 명을 보려면 표시 위로 마우스를 이동하세요.

날씨 관측과 예보를 보려면 클릭하세요.

지도 변경 : 확대하려면 엑스 표시가 있는 녹색 버튼, 축소하려면 빼기 표시가 있는 녹색 버튼, 다음 페이지의 지도를 보려면 녹색 화살표를 클릭하세요.


METAR-TAF: